Estación Meteorológica Peña el Pijo (Robertgarden) [ 01/30/23 15:29:21 CET ]

Fecha Hora Presion(HPa) Temp (°C) Humedad % Rocio (°C) Viento ( m/s) Direccion Lluvia 1Hora(mm) Lluvia 24H(mm) LLuvia Total(mm)
2010-May-18 01:01:17 1019.000 7.9 76 3.9         113.96
2010-May-18 02:01:13 1019.200 7.0 79 3.6         113.96
2010-May-18 03:03:14 1018.700 6.1 81 3.1         113.96
2010-May-18 04:01:12 1018.400 5.3 82 2.4         113.96
2010-May-18 05:01:10 1018.200 4.6 84 2.1         113.96
2010-May-18 06:01:14 1018.100 4.3 85 2.0         113.96
2010-May-18 07:01:12 1018.300 3.6 86 1.5         113.96
2010-May-18 08:01:13 1018.400 6.0 88 4.2         113.96
2010-May-18 09:01:13 1018.700 12.2 68 6.5         113.96
2010-May-18 10:01:16 1018.500 17.2 47 5.7         113.96
2010-May-18 11:01:16 1018.000 22.9 39 8.2         113.96
2010-May-18 12:01:12 1018.100 25.6 27 5.0         113.96
2010-May-18 13:01:13 1018.000 27.4 21 3.1         113.96
2010-May-18 14:01:13 1017.500 28.8 21 4.2         113.96
2010-May-18 15:01:11 1017.200 27.4 24 4.8         113.96
2010-May-18 16:01:16 1016.800 27.9 21 3.5         113.96
2010-May-18 17:01:18 1016.200 28.4 19 2.4         113.96
2010-May-18 18:01:14 1015.800 28.8 20 3.6 0.9 NE     113.96
2010-May-18 19:01:12 1015.900 26.9 26 5.6         113.96
2010-May-18 20:01:14 1016.000 23.0 31 4.9         113.96
2010-May-18 21:01:12 1016.600 19.5 39 5.1         113.96
2010-May-18 22:01:14 1017.400 16.4 48 5.3         113.96
2010-May-18 23:01:13 1018.100 13.6 60 6.0         113.96

Temperatura Máxima:28°    Temperatura Mínima:
Presión Máxima:1019.200 Hpa    Presión Mínima:1015.800 Hpa


Volver